Palmerdale, Alabama
Current Conditions -  °F | °C
As of 6:53 AM on Wednesday 22 Oct 2014 (Local Time) from KBHM Reporting Station
Clear Clear  
Wind Chill: 49°   Ceiling: Unl
Heat Index: 49°   Visibility: 10mi
Dew Point: 43°   Wind: 3mph
Humidity: 80%   Direction: 60°ENE
Pressure: 30.16"   Gusts: NA
Location:  33.73°N, 86.65°W
Report Text: KBHM 221153Z 06003KT 10SM CLR 09/06 A3016 RMK AO2 SLP210 T00940061 10117 20089 51018
Loading
Personal Weather Stations






























Interactive Weather Map
Tropical Storm Tracking
New forecast layout! Learn more

10-Day Weather Forecast

Advertisements
Track Severe Weather on mobile